createdAt,value
2019-03-01T00:00:04.762Z,49.96
2019-03-01T00:01:04.754Z,49.96
2019-03-01T00:02:04.744Z,49.96
2019-03-01T00:03:04.757Z,49.96
2019-03-01T00:04:04.721Z,49.96
2019-03-01T00:05:04.706Z,49.96
2019-03-01T00:06:04.701Z,49.96
2019-03-01T00:07:04.689Z,49.96
2019-03-01T00:08:04.709Z,49.96
2019-03-01T00:09:04.673Z,49.96
2019-03-01T00:10:04.655Z,49.96
2019-03-01T00:11:04.643Z,49.96
2019-03-01T00:12:04.629Z,49.96
2019-03-01T00:13:04.624Z,49.96
2019-03-01T00:14:04.898Z,49.96
2019-03-01T00:15:04.597Z,49.86
2019-03-01T00:16:04.585Z,49.96
2019-03-01T00:17:04.577Z,49.86
2019-03-01T00:18:04.566Z,49.86
2019-03-01T00:19:04.572Z,49.86
2019-03-01T00:20:04.566Z,49.86
2019-03-01T00:21:04.529Z,49.86
2019-03-01T00:22:04.554Z,49.86
2019-03-01T00:23:04.514Z,49.86
2019-03-01T00:24:04.499Z,49.86
2019-03-01T00:25:04.488Z,49.84
2019-03-01T00:26:04.482Z,49.86
2019-03-01T00:27:04.469Z,49.86
2019-03-01T00:28:04.472Z,49.86
2019-03-01T00:29:04.441Z,49.86
2019-03-01T00:30:04.432Z,49.86
2019-03-01T00:31:04.467Z,49.86
2019-03-01T00:32:04.408Z,49.84
2019-03-01T00:33:04.405Z,49.86
2019-03-01T00:34:04.390Z,49.86
2019-03-01T00:35:04.379Z,49.86
2019-03-01T00:36:04.367Z,49.84
2019-03-01T00:37:04.384Z,49.96
2019-03-01T00:38:04.345Z,49.96
2019-03-01T00:39:04.351Z,49.96
2019-03-01T00:40:04.320Z,49.93
2019-03-01T00:41:04.311Z,49.96
2019-03-01T00:42:04.312Z,49.93
2019-03-01T00:43:04.536Z,50.06
2019-03-01T00:44:04.288Z,50.04
2019-03-01T00:45:04.267Z,50.06
2019-03-01T00:46:04.258Z,50.04
2019-03-01T00:47:04.249Z,50.04
2019-03-01T00:48:04.237Z,50.04
2019-03-01T00:49:04.438Z,50.04
2019-03-01T00:50:04.216Z,50.04
2019-03-01T00:51:04.209Z,50.06
2019-03-01T00:52:04.224Z,50.04
2019-03-01T00:53:04.181Z,50.04
2019-03-01T00:54:04.171Z,50.06
2019-03-01T00:55:04.185Z,50.06
2019-03-01T00:56:04.146Z,50.06
2019-03-01T00:57:04.142Z,50.06
2019-03-01T00:58:04.166Z,50.06
2019-03-01T00:59:04.119Z,50.06
2019-03-01T01:00:04.112Z,50.04
2019-03-01T01:01:04.091Z,50.06
2019-03-01T01:02:04.085Z,50.06
2019-03-01T01:03:04.077Z,50.06
2019-03-01T01:04:04.084Z,50.06
2019-03-01T01:05:04.071Z,50.06
2019-03-01T01:06:04.038Z,50.06
2019-03-01T01:07:04.033Z,50.06
2019-03-01T01:08:04.044Z,50.06
2019-03-01T01:09:04.014Z,50.16
2019-03-01T01:10:04.026Z,50.16
2019-03-01T01:11:03.993Z,50.16
2019-03-01T01:12:03.979Z,50.16
2019-03-01T01:13:03.963Z,50.16
2019-03-01T01:14:03.957Z,50.16
2019-03-01T01:15:03.969Z,50.16
2019-03-01T01:16:03.963Z,50.16
2019-03-01T01:17:03.924Z,50.16
2019-03-01T01:18:03.914Z,50.16
2019-03-01T01:19:03.905Z,50.16
2019-03-01T01:20:03.899Z,50.16
2019-03-01T01:21:03.881Z,50.16
2019-03-01T01:22:03.887Z,50.16
2019-03-01T01:23:03.852Z,50.16
2019-03-01T01:24:03.850Z,50.16
2019-03-01T01:25:03.836Z,50.16
2019-03-01T01:26:03.820Z,50.16
2019-03-01T01:27:03.808Z,50.16
2019-03-01T01:28:04.032Z,50.16
2019-03-01T01:29:03.792Z,50.16
2019-03-01T01:30:03.782Z,50.16
2019-03-01T01:31:03.786Z,50.16
2019-03-01T01:32:03.759Z,50.16
2019-03-01T01:33:03.745Z,50.16
2019-03-01T01:34:03.750Z,50.16
2019-03-01T01:35:03.727Z,50.26
2019-03-01T01:36:03.717Z,50.26
2019-03-01T01:37:03.709Z,50.26
2019-03-01T01:38:03.713Z,50.16
2019-03-01T01:39:03.711Z,50.26
2019-03-01T01:40:03.670Z,50.26
2019-03-01T01:41:03.654Z,50.26
2019-03-01T01:42:03.653Z,50.26
2019-03-01T01:43:03.637Z,50.26
2019-03-01T01:44:03.624Z,50.26
2019-03-01T01:45:03.635Z,50.26
2019-03-01T01:46:03.604Z,50.26
2019-03-01T01:47:03.593Z,50.26
2019-03-01T01:48:03.579Z,50.26
2019-03-01T01:49:03.567Z,50.26
2019-03-01T01:50:03.782Z,50.26
2019-03-01T01:51:03.556Z,50.26
2019-03-01T01:52:03.533Z,50.26
2019-03-01T01:53:03.527Z,50.26
2019-03-01T01:54:03.511Z,50.26
2019-03-01T01:55:03.505Z,50.26
2019-03-01T01:56:03.517Z,50.26
2019-03-01T01:57:03.483Z,50.26
2019-03-01T01:58:03.474Z,50.26
2019-03-01T01:59:03.465Z,50.26
2019-03-01T02:00:03.479Z,50.26
2019-03-01T02:01:03.447Z,50.36
2019-03-01T02:02:03.447Z,50.26
2019-03-01T02:03:03.415Z,50.26
2019-03-01T02:04:03.427Z,50.26
2019-03-01T02:05:03.394Z,50.26
2019-03-01T02:06:03.384Z,50.36
2019-03-01T02:07:03.372Z,50.26
2019-03-01T02:08:03.393Z,50.26
2019-03-01T02:09:03.349Z,50.36
2019-03-01T02:10:03.340Z,50.26
2019-03-01T02:11:03.338Z,50.36
2019-03-01T02:12:03.340Z,50.26
2019-03-01T02:13:03.325Z,50.26
2019-03-01T02:14:03.297Z,50.26
2019-03-01T02:15:03.287Z,50.24
2019-03-01T02:16:03.272Z,50.26
2019-03-01T02:17:03.264Z,50.26
2019-03-01T02:18:03.250Z,50.16
2019-03-01T02:19:03.266Z,50.13
2019-03-01T02:20:03.233Z,50.24
2019-03-01T02:21:03.217Z,50.16
2019-03-01T02:22:03.207Z,50.13
2019-03-01T02:23:03.202Z,50.13
2019-03-01T02:24:03.196Z,50.13
2019-03-01T02:25:03.417Z,50.13
2019-03-01T02:26:03.166Z,50.16
2019-03-01T02:27:03.156Z,50.13
2019-03-01T02:28:03.139Z,50.16
2019-03-01T02:29:03.132Z,50.13
2019-03-01T02:30:03.121Z,50.16
2019-03-01T02:31:03.130Z,50.13
2019-03-01T02:32:03.095Z,50.13
2019-03-01T02:33:03.108Z,50.13
2019-03-01T02:34:03.098Z,50.13
2019-03-01T02:35:03.067Z,50.13
2019-03-01T02:36:03.054Z,50.13
2019-03-01T02:37:03.072Z,50.13
2019-03-01T02:38:03.036Z,50.13
2019-03-01T02:39:03.024Z,50.16
2019-03-01T02:40:03.013Z,50.24
2019-03-01T02:41:03.028Z,50.24
2019-03-01T02:42:03.064Z,50.24
2019-03-01T02:43:02.980Z,50.26
2019-03-01T02:44:02.971Z,50.26
2019-03-01T02:45:02.953Z,50.26
2019-03-01T02:46:02.942Z,50.36
2019-03-01T02:47:02.957Z,50.36
2019-03-01T02:48:02.949Z,50.34
2019-03-01T02:49:02.915Z,50.34
2019-03-01T02:50:02.897Z,50.34
2019-03-01T02:51:02.893Z,50.36
2019-03-01T02:52:02.884Z,50.36
2019-03-01T02:53:02.907Z,50.34
2019-03-01T02:54:02.856Z,50.36
2019-03-01T02:55:02.847Z,50.36
2019-03-01T02:56:02.837Z,50.34
2019-03-01T02:57:02.844Z,50.36
2019-03-01T02:58:02.813Z,50.36
2019-03-01T02:59:02.822Z,50.36
2019-03-01T03:00:02.810Z,50.36
2019-03-01T03:01:02.780Z,50.36
2019-03-01T03:02:02.769Z,50.36
2019-03-01T03:03:02.756Z,50.36
2019-03-01T03:04:02.743Z,50.36
2019-03-01T03:05:02.757Z,50.36
2019-03-01T03:06:02.725Z,50.36
2019-03-01T03:07:02.726Z,50.46
2019-03-01T03:08:02.704Z,50.46
2019-03-01T03:09:02.692Z,50.46
2019-03-01T03:10:02.895Z,50.36
2019-03-01T03:11:02.679Z,50.46
2019-03-01T03:12:02.660Z,50.44
2019-03-01T03:13:02.653Z,50.46
2019-03-01T03:14:02.639Z,50.44
2019-03-01T03:15:02.627Z,50.46
2019-03-01T03:16:02.648Z,50.44
2019-03-01T03:17:02.601Z,50.36
2019-03-01T03:18:02.602Z,50.46
2019-03-01T03:19:02.584Z,50.46
2019-03-01T03:20:02.592Z,50.46
2019-03-01T03:21:02.559Z,50.46
2019-03-01T03:22:02.566Z,50.44
2019-03-01T03:23:02.550Z,50.46
2019-03-01T03:24:02.531Z,50.44
2019-03-01T03:25:02.520Z,50.46
2019-03-01T03:26:02.506Z,50.44
2019-03-01T03:27:02.503Z,50.46
2019-03-01T03:28:02.544Z,50.46
2019-03-01T03:29:02.475Z,50.46
2019-03-01T03:30:02.464Z,50.34
2019-03-01T03:31:02.451Z,50.34
2019-03-01T03:32:02.479Z,50.34
2019-03-01T03:33:02.455Z,50.34
2019-03-01T03:34:02.444Z,50.34
2019-03-01T03:35:02.415Z,50.34
2019-03-01T03:36:02.397Z,50.34
2019-03-01T03:37:02.397Z,50.34
2019-03-01T03:38:02.443Z,50.34
2019-03-01T03:39:02.365Z,50.44
2019-03-01T03:40:02.349Z,50.44
2019-03-01T03:41:02.344Z,50.34
2019-03-01T03:42:02.340Z,50.34
2019-03-01T03:43:02.340Z,50.34
2019-03-01T03:44:02.325Z,50.34
2019-03-01T03:45:02.295Z,50.34
2019-03-01T03:46:02.290Z,50.34
2019-03-01T03:47:02.278Z,50.34
2019-03-01T03:48:02.261Z,50.36
2019-03-01T03:49:02.460Z,50.36
2019-03-01T03:50:02.245Z,50.34
2019-03-01T03:51:02.235Z,50.34
2019-03-01T03:52:02.229Z,50.34
2019-03-01T03:53:02.212Z,50.36
2019-03-01T03:54:02.199Z,50.36
2019-03-01T03:55:02.214Z,50.36
2019-03-01T03:56:02.458Z,50.36
2019-03-01T03:57:02.172Z,50.34
2019-03-01T03:58:02.156Z,50.34
2019-03-01T03:59:02.148Z,50.34
2019-03-01T04:00:02.131Z,50.34
2019-03-01T04:01:02.121Z,50.34
2019-03-01T04:02:02.146Z,50.26
2019-03-01T04:03:02.101Z,50.36
2019-03-01T04:04:02.100Z,50.26
2019-03-01T04:05:02.089Z,50.24
2019-03-01T04:06:02.082Z,50.36
2019-03-01T04:07:02.052Z,50.36
2019-03-01T04:08:02.077Z,50.34
2019-03-01T04:09:02.103Z,50.36
2019-03-01T04:10:02.027Z,50.34
2019-03-01T04:11:02.032Z,50.36
2019-03-01T04:12:02.003Z,50.34
2019-03-01T04:13:02.004Z,50.34
2019-03-01T04:14:01.976Z,50.36
2019-03-01T04:15:01.966Z,50.36
2019-03-01T04:16:01.957Z,50.34
2019-03-01T04:17:01.968Z,50.34
2019-03-01T04:18:01.962Z,50.36
2019-03-01T04:19:01.995Z,50.36
2019-03-01T04:20:02.005Z,50.36
2019-03-01T04:21:01.905Z,50.36
2019-03-01T04:22:01.888Z,50.34
2019-03-01T04:23:01.903Z,50.34
2019-03-01T04:24:01.882Z,50.36
2019-03-01T04:25:01.885Z,50.26
2019-03-01T04:26:01.848Z,50.26
2019-03-01T04:27:01.839Z,50.26
2019-03-01T04:28:01.824Z,50.26
2019-03-01T04:29:01.857Z,50.26
2019-03-01T04:30:01.806Z,50.26
2019-03-01T04:31:01.819Z,50.26
2019-03-01T04:32:01.782Z,50.26
2019-03-01T04:33:01.767Z,50.26
2019-03-01T04:34:01.758Z,50.24
2019-03-01T04:35:01.749Z,50.24
2019-03-01T04:36:01.743Z,50.24
2019-03-01T04:37:01.760Z,50.26
2019-03-01T04:38:01.720Z,50.24
2019-03-01T04:39:01.701Z,50.26
2019-03-01T04:40:01.694Z,50.24
2019-03-01T04:41:01.679Z,50.24
2019-03-01T04:42:01.673Z,50.24
2019-03-01T04:43:01.683Z,50.24
2019-03-01T04:44:01.653Z,50.26
2019-03-01T04:45:01.639Z,50.24
2019-03-01T04:46:01.631Z,50.24
2019-03-01T04:47:01.651Z,50.26
2019-03-01T04:48:01.613Z,50.26
2019-03-01T04:49:01.596Z,50.26
2019-03-01T04:50:01.591Z,50.24
2019-03-01T04:51:01.576Z,50.26
2019-03-01T04:52:01.583Z,50.26
2019-03-01T04:53:01.572Z,50.24
2019-03-01T04:54:01.539Z,50.24
2019-03-01T04:55:01.562Z,50.26
2019-03-01T04:56:01.528Z,50.24
2019-03-01T04:57:01.510Z,50.24
2019-03-01T04:58:01.492Z,50.24
2019-03-01T04:59:01.487Z,50.24
2019-03-01T05:00:01.471Z,50.13
2019-03-01T05:01:01.489Z,50.13
2019-03-01T05:02:01.474Z,50.16
2019-03-01T05:03:01.463Z,50.16
2019-03-01T05:04:01.431Z,50.13
2019-03-01T05:05:01.421Z,50.13
2019-03-01T05:06:01.410Z,50.16
2019-03-01T05:07:01.436Z,50.13
2019-03-01T05:08:01.383Z,50.13
2019-03-01T05:09:01.379Z,50.16
2019-03-01T05:10:01.366Z,50.13
2019-03-01T05:11:01.357Z,50.13
2019-03-01T05:12:01.342Z,50.13
2019-03-01T05:13:01.364Z,50.13
2019-03-01T05:14:01.320Z,50.13
2019-03-01T05:15:01.319Z,50.13
2019-03-01T05:16:01.300Z,50.13
2019-03-01T05:17:01.293Z,50.13
2019-03-01T05:18:01.276Z,50.13
2019-03-01T05:19:01.284Z,50.13
2019-03-01T05:20:01.254Z,50.13
2019-03-01T05:21:01.245Z,50.13
2019-03-01T05:22:01.271Z,50.13
2019-03-01T05:23:01.225Z,50.04
2019-03-01T05:24:01.212Z,50.04
2019-03-01T05:25:01.233Z,50.04
2019-03-01T05:26:01.185Z,50.04
2019-03-01T05:27:01.182Z,50.04
2019-03-01T05:28:01.182Z,50.04
2019-03-01T05:29:01.153Z,50.04
2019-03-01T05:30:01.143Z,50.04
2019-03-01T05:31:01.138Z,50.04
2019-03-01T05:32:01.127Z,50.04
2019-03-01T05:33:01.148Z,50.04
2019-03-01T05:34:01.107Z,50.04
2019-03-01T05:35:01.109Z,50.04
2019-03-01T05:36:01.078Z,50.04
2019-03-01T05:37:01.072Z,50.04
2019-03-01T05:38:01.068Z,50.04
2019-03-01T05:39:01.062Z,50.04
2019-03-01T05:40:01.074Z,50.04
2019-03-01T05:41:01.022Z,50.04
2019-03-01T05:42:01.014Z,50.04
2019-03-01T05:43:00.999Z,50.04
2019-03-01T05:44:00.991Z,50.04
2019-03-01T05:45:00.978Z,50.04
2019-03-01T05:46:00.991Z,50.04
2019-03-01T05:47:00.962Z,50.04
2019-03-01T05:48:00.960Z,50.04
2019-03-01T05:49:00.937Z,50.04
2019-03-01T05:50:00.922Z,50.04
2019-03-01T05:51:00.953Z,50.04
2019-03-01T05:52:00.909Z,50.13
2019-03-01T05:53:00.897Z,50.13
2019-03-01T05:54:00.888Z,50.13
2019-03-01T05:55:00.869Z,50.04
2019-03-01T05:56:00.864Z,50.13
2019-03-01T05:57:00.871Z,50.04
2019-03-01T05:58:01.066Z,50.04
2019-03-01T05:59:00.823Z,50.04
2019-03-01T06:00:00.825Z,50.04
2019-03-01T06:01:00.804Z,50.04
2019-03-01T06:02:00.795Z,50.04
2019-03-01T06:03:00.783Z,50.04
2019-03-01T06:04:00.990Z,50.04
2019-03-01T06:05:00.761Z,50.16
2019-03-01T06:06:00.746Z,50.13
2019-03-01T06:07:00.740Z,50.13
2019-03-01T06:08:00.724Z,50.13
2019-03-01T06:09:00.713Z,50.04
2019-03-01T06:10:00.917Z,50.13
2019-03-01T06:11:00.705Z,50.13
2019-03-01T06:12:00.682Z,50.13
2019-03-01T06:13:00.673Z,50.06
2019-03-01T06:14:00.677Z,50.13
2019-03-01T06:15:00.656Z,50.13
2019-03-01T06:16:00.658Z,50.13
2019-03-01T06:17:00.628Z,50.13
2019-03-01T06:18:00.616Z,50.13
2019-03-01T06:19:00.605Z,50.13
2019-03-01T06:20:00.603Z,50.13
2019-03-01T06:21:00.816Z,50.16
2019-03-01T06:22:00.575Z,50.13
2019-03-01T06:23:00.562Z,50.13
2019-03-01T06:24:00.555Z,50.13
2019-03-01T06:25:00.539Z,50.16
2019-03-01T06:26:00.526Z,50.13
2019-03-01T06:27:00.608Z,50.13
2019-03-01T06:28:00.509Z,50.16
2019-03-01T06:29:00.518Z,50.16
2019-03-01T06:30:00.484Z,50.13
2019-03-01T06:31:00.478Z,50.13
2019-03-01T06:32:00.460Z,50.13
2019-03-01T06:33:00.468Z,50.13
2019-03-01T06:34:00.462Z,50.13
2019-03-01T06:35:00.460Z,50.13
2019-03-01T06:36:00.421Z,50.13
2019-03-01T06:37:00.404Z,50.13
2019-03-01T06:38:00.421Z,50.04
2019-03-01T06:39:00.391Z,50.04
2019-03-01T06:40:00.387Z,50.04
2019-03-01T06:41:00.368Z,50.04
2019-03-01T06:42:00.356Z,50.04
2019-03-01T06:43:00.391Z,50.04
2019-03-01T06:44:00.351Z,50.04
2019-03-01T06:45:00.355Z,50.04
2019-03-01T06:46:00.310Z,50.04
2019-03-01T06:47:00.302Z,50.04
2019-03-01T06:48:00.286Z,49.93
2019-03-01T06:49:00.297Z,49.93
2019-03-01T06:50:00.379Z,49.93
2019-03-01T06:51:00.252Z,49.93
2019-03-01T06:52:00.535Z,49.93
2019-03-01T06:53:00.237Z,49.93
2019-03-01T06:54:00.221Z,49.93
2019-03-01T06:55:00.311Z,49.93
2019-03-01T06:56:00.197Z,49.93
2019-03-01T06:57:00.203Z,49.93
2019-03-01T06:58:00.198Z,49.93
2019-03-01T06:59:00.163Z,49.93
2019-03-01T07:00:00.353Z,49.93
2019-03-01T07:01:00.146Z,49.93
2019-03-01T07:02:00.177Z,49.93
2019-03-01T07:03:00.130Z,49.93
2019-03-01T07:04:00.120Z,49.93
2019-03-01T07:05:00.274Z,49.93
2019-03-01T07:06:03.389Z,49.93
2019-03-01T07:07:00.104Z,49.93
2019-03-01T07:08:00.109Z,49.93
2019-03-01T07:09:00.076Z,49.93
2019-03-01T07:10:00.053Z,49.93
2019-03-01T07:11:00.035Z,49.93
2019-03-01T07:12:00.029Z,49.93
2019-03-01T07:13:00.014Z,49.93
2019-03-01T07:14:00.022Z,49.93
2019-03-01T07:15:00.000Z,49.93
2019-03-01T07:15:59.984Z,49.93
2019-03-01T07:16:59.971Z,49.93
2019-03-01T07:17:59.962Z,49.93
2019-03-01T07:19:00.183Z,49.93
2019-03-01T07:19:59.947Z,49.93
2019-03-01T07:20:59.933Z,49.93
2019-03-01T07:21:59.917Z,49.93
2019-03-01T07:22:59.906Z,49.93
2019-03-01T07:23:59.958Z,49.93
2019-03-01T07:24:59.922Z,49.93
2019-03-01T07:25:59.868Z,49.93
2019-03-01T07:26:59.861Z,49.93
2019-03-01T07:27:59.854Z,49.93
2019-03-01T07:28:59.841Z,49.93
2019-03-01T07:29:59.845Z,49.93
2019-03-01T07:30:59.847Z,49.93
2019-03-01T07:31:59.811Z,49.93
2019-03-01T07:32:59.795Z,49.93
2019-03-01T07:33:59.791Z,49.93
2019-03-01T07:34:59.776Z,49.93
2019-03-01T07:35:59.762Z,49.93
2019-03-01T07:36:59.961Z,49.93
2019-03-01T07:37:59.754Z,49.93
2019-03-01T07:38:59.729Z,49.93
2019-03-01T07:39:59.717Z,49.93
2019-03-01T07:40:59.709Z,49.93
2019-03-01T07:41:59.695Z,49.93
2019-03-01T07:42:59.731Z,49.93
2019-03-01T07:43:59.682Z,49.93
2019-03-01T07:44:59.662Z,49.93
2019-03-01T07:45:59.652Z,49.93
2019-03-01T07:46:59.644Z,49.93
2019-03-01T07:47:59.853Z,49.93
2019-03-01T07:48:59.621Z,49.93
2019-03-01T07:49:59.618Z,49.93
2019-03-01T07:50:59.620Z,49.93
2019-03-01T07:52:01.754Z,49.93
2019-03-01T07:53:03.788Z,49.93
2019-03-01T07:53:59.564Z,49.93
2019-03-01T07:54:59.555Z,49.93
2019-03-01T07:56:00.705Z,49.93
2019-03-01T07:56:59.532Z,49.93
2019-03-01T07:57:59.517Z,49.93
2019-03-01T07:59:00.305Z,49.93
2019-03-01T07:59:59.499Z,49.93
2019-03-01T08:00:59.491Z,49.93
2019-03-01T08:02:00.795Z,49.93
2019-03-01T08:02:59.500Z,49.93
2019-03-01T08:03:59.453Z,49.93
2019-03-01T08:05:00.043Z,49.93
2019-03-01T08:05:59.481Z,49.93
2019-03-01T08:06:59.420Z,49.93
2019-03-01T08:08:02.570Z,49.93
2019-03-01T08:08:59.396Z,49.93
2019-03-01T08:09:59.385Z,49.93
2019-03-01T08:11:00.146Z,49.93
2019-03-01T08:11:59.390Z,49.84
2019-03-01T08:12:59.355Z,49.84
2019-03-01T08:13:59.347Z,49.84
2019-03-01T08:14:59.334Z,49.84
2019-03-01T08:15:59.330Z,49.84
2019-03-01T08:16:59.318Z,49.84
2019-03-01T08:18:00.535Z,49.84
2019-03-01T08:18:59.286Z,49.84
2019-03-01T08:19:59.846Z,49.84
2019-03-01T08:20:59.286Z,49.84
2019-03-01T08:21:59.256Z,49.84
2019-03-01T08:22:59.929Z,49.84
2019-03-01T08:23:59.255Z,49.84
2019-03-01T08:24:59.226Z,49.84
2019-03-01T08:25:59.906Z,49.74
2019-03-01T08:26:59.206Z,49.74
2019-03-01T08:27:59.187Z,49.74
2019-03-01T08:28:59.863Z,49.74
2019-03-01T08:29:59.172Z,49.74
2019-03-01T08:30:59.155Z,49.74
2019-03-01T08:31:59.148Z,49.74
2019-03-01T08:32:59.139Z,49.74
2019-03-01T08:33:59.128Z,49.74
2019-03-01T08:34:59.163Z,49.63
2019-03-01T08:36:02.336Z,49.63
2019-03-01T08:37:00.095Z,49.63
2019-03-01T08:37:59.087Z,49.63
2019-03-01T08:39:00.856Z,49.63
2019-03-01T08:40:00.275Z,49.63
2019-03-01T08:40:59.051Z,49.54
2019-03-01T08:42:01.290Z,49.54
2019-03-01T08:42:59.030Z,49.54
2019-03-01T08:43:59.011Z,49.54
2019-03-01T08:44:59.331Z,49.54
2019-03-01T08:45:59.033Z,49.54
2019-03-01T08:46:58.988Z,49.54
2019-03-01T08:47:59.707Z,49.54
2019-03-01T08:48:58.963Z,49.54
2019-03-01T08:49:58.950Z,49.54
2019-03-01T08:50:58.950Z,49.54
2019-03-01T08:52:01.509Z,49.54
2019-03-01T08:52:58.919Z,49.54
2019-03-01T08:53:58.907Z,49.54
2019-03-01T08:55:03.419Z,49.54
2019-03-01T08:55:59.884Z,49.54
2019-03-01T08:56:58.869Z,49.43
2019-03-01T08:58:02.854Z,49.43
2019-03-01T08:59:00.827Z,49.43
2019-03-01T08:59:58.844Z,49.43
2019-03-01T09:00:59.888Z,49.43
2019-03-01T09:01:58.840Z,49.43
2019-03-01T09:02:58.843Z,49.43
2019-03-01T09:03:58.823Z,49.33
2019-03-01T09:04:58.789Z,49.33
2019-03-01T09:05:58.772Z,49.33
2019-03-01T09:06:58.760Z,49.33
2019-03-01T09:07:58.753Z,49.33
2019-03-01T09:08:58.950Z,49.23
2019-03-01T09:09:58.731Z,49.23
2019-03-01T09:10:58.720Z,49.23
2019-03-01T09:11:58.724Z,49.23
2019-03-01T09:12:58.698Z,49.23
2019-03-01T09:13:58.683Z,49.23
2019-03-01T09:14:58.706Z,49.13
2019-03-01T09:15:58.668Z,49.13
2019-03-01T09:16:58.651Z,49.13
2019-03-01T09:17:58.639Z,49.13
2019-03-01T09:18:58.628Z,49.13
2019-03-01T09:20:00.213Z,49.13
2019-03-01T09:21:05.751Z,49.13
2019-03-01T09:21:59.595Z,49.13
2019-03-01T09:22:58.588Z,49.13
2019-03-01T09:23:58.616Z,49.04
2019-03-01T09:24:58.583Z,49.04
2019-03-01T09:25:58.557Z,49.04
2019-03-01T09:26:58.567Z,49.04
2019-03-01T09:27:58.532Z,49.04
2019-03-01T09:28:58.521Z,48.93
2019-03-01T09:29:59.442Z,48.93
2019-03-01T09:30:58.501Z,48.93
2019-03-01T09:31:58.716Z,48.93
2019-03-01T09:32:58.481Z,48.93
2019-03-01T09:33:58.473Z,48.93
2019-03-01T09:34:58.478Z,48.93
2019-03-01T09:35:58.441Z,48.93
2019-03-01T09:36:58.435Z,48.83
2019-03-01T09:37:58.463Z,48.83
2019-03-01T09:38:58.415Z,48.83
2019-03-01T09:40:05.236Z,48.83
2019-03-01T09:41:01.274Z,48.83
2019-03-01T09:42:03.269Z,48.83
2019-03-01T09:43:00.950Z,48.83
2019-03-01T09:43:59.721Z,48.83
2019-03-01T09:44:58.351Z,48.83
2019-03-01T09:45:58.336Z,48.83
2019-03-01T09:47:01.353Z,48.83
2019-03-01T09:47:58.353Z,48.83
2019-03-01T09:48:58.306Z,48.83
2019-03-01T09:50:00.134Z,48.83
2019-03-01T09:50:58.283Z,48.83
2019-03-01T09:51:58.276Z,48.83
2019-03-01T09:52:58.984Z,48.83
2019-03-01T09:53:58.247Z,48.83
2019-03-01T09:54:58.233Z,48.83
2019-03-01T09:56:00.024Z,48.93
2019-03-01T09:56:58.216Z,48.93
2019-03-01T09:57:58.231Z,48.93
2019-03-01T09:58:58.213Z,48.93
2019-03-01T09:59:58.185Z,49.04
2019-03-01T10:00:58.174Z,49.04
2019-03-01T10:01:58.166Z,48.93
2019-03-01T10:02:58.637Z,48.93
2019-03-01T10:03:58.161Z,48.93
2019-03-01T10:04:58.128Z,48.93
2019-03-01T10:05:58.119Z,48.93
2019-03-01T10:06:58.111Z,48.93
2019-03-01T10:07:58.140Z,49.04
2019-03-01T10:08:58.086Z,49.04
2019-03-01T10:09:58.245Z,49.04
2019-03-01T10:10:58.073Z,49.04
2019-03-01T10:11:58.096Z,49.04
2019-03-01T10:12:58.063Z,49.04
2019-03-01T10:13:58.030Z,49.04
2019-03-01T10:14:58.015Z,49.04
2019-03-01T10:15:58.029Z,49.04
2019-03-01T10:16:57.998Z,49.04
2019-03-01T10:17:57.988Z,49.04
2019-03-01T10:18:57.979Z,49.04
2019-03-01T10:19:58.005Z,49.04
2019-03-01T10:20:57.964Z,49.13
2019-03-01T10:21:57.943Z,49.04
2019-03-01T10:22:57.929Z,49.04
2019-03-01T10:23:57.921Z,49.04
2019-03-01T10:24:57.912Z,49.04
2019-03-01T10:25:57.914Z,49.13
2019-03-01T10:26:57.883Z,49.13
2019-03-01T10:27:58.081Z,49.13
2019-03-01T10:28:57.862Z,49.13
2019-03-01T10:29:57.852Z,49.13
2019-03-01T10:30:57.845Z,49.04
2019-03-01T10:31:57.827Z,49.04
2019-03-01T10:32:57.824Z,49.04
2019-03-01T10:33:57.844Z,49.04
2019-03-01T10:34:57.796Z,49.04
2019-03-01T10:35:57.787Z,49.04
2019-03-01T10:36:57.787Z,49.04
2019-03-01T10:37:57.769Z,49.04
2019-03-01T10:38:57.771Z,49.04
2019-03-01T10:39:57.742Z,49.04
2019-03-01T10:40:57.732Z,48.93
2019-03-01T10:41:57.721Z,49.04
2019-03-01T10:42:57.714Z,49.04
2019-03-01T10:43:57.736Z,49.04
2019-03-01T10:44:57.689Z,49.04
2019-03-01T10:45:57.682Z,49.04
2019-03-01T10:46:59.528Z,49.04
2019-03-01T10:47:57.654Z,49.04
2019-03-01T10:48:57.643Z,49.04
2019-03-01T10:49:57.659Z,49.04
2019-03-01T10:50:57.618Z,49.04
2019-03-01T10:51:57.607Z,49.04
2019-03-01T10:52:57.607Z,49.04
2019-03-01T10:53:57.591Z,49.04
2019-03-01T10:54:57.591Z,49.04
2019-03-01T10:55:57.594Z,49.04
2019-03-01T10:56:57.561Z,49.04
2019-03-01T10:57:57.549Z,49.04
2019-03-01T10:58:58.480Z,49.04
2019-03-01T10:59:57.520Z,49.04
2019-03-01T11:00:57.536Z,49.04
2019-03-01T11:01:57.501Z,49.04
2019-03-01T11:02:57.495Z,49.04
2019-03-01T11:03:57.478Z,49.04
2019-03-01T11:04:57.468Z,49.04
2019-03-01T11:05:57.458Z,49.04
2019-03-01T11:06:57.476Z,49.04
2019-03-01T11:07:57.432Z,49.04
2019-03-01T11:08:57.424Z,49.04
2019-03-01T11:09:57.415Z,48.93
2019-03-01T11:10:57.405Z,48.93
2019-03-01T11:11:57.614Z,48.93
2019-03-01T11:12:57.388Z,48.93
2019-03-01T11:13:57.374Z,48.83
2019-03-01T11:14:57.361Z,48.83
2019-03-01T11:15:57.345Z,48.73
2019-03-01T11:16:57.335Z,48.73
2019-03-01T11:17:57.347Z,48.63
2019-03-01T11:18:57.315Z,48.61
2019-03-01T11:19:57.301Z,48.51
2019-03-01T11:20:57.294Z,48.51
2019-03-01T11:21:57.282Z,48.41
2019-03-01T11:22:57.273Z,48.41
2019-03-01T11:23:57.293Z,48.31
2019-03-01T11:24:57.253Z,48.31
2019-03-01T11:25:57.240Z,48.31
2019-03-01T11:26:57.229Z,48.21
2019-03-01T11:27:57.215Z,48.21
2019-03-01T11:28:57.205Z,48.21
2019-03-01T11:29:57.220Z,48.21
2019-03-01T11:30:57.181Z,48.21
2019-03-01T11:31:57.189Z,48.11
2019-03-01T11:32:57.159Z,48.11
2019-03-01T11:33:57.172Z,48.11
2019-03-01T11:34:57.143Z,48.21
2019-03-01T11:35:57.149Z,48.21
2019-03-01T11:36:57.115Z,48.11
2019-03-01T11:37:57.110Z,48.21
2019-03-01T11:38:57.096Z,48.11
2019-03-01T11:39:57.107Z,48.11
2019-03-01T11:40:57.077Z,48.11
2019-03-01T11:41:57.092Z,48.21
2019-03-01T11:42:57.057Z,48.31
2019-03-01T11:43:57.049Z,48.31
2019-03-01T11:44:57.034Z,48.41
2019-03-01T11:45:57.017Z,48.41
2019-03-01T11:46:57.014Z,48.41
2019-03-01T11:47:57.017Z,48.41
2019-03-01T11:48:56.987Z,48.41
2019-03-01T11:49:56.977Z,48.41
2019-03-01T11:50:56.966Z,48.41
2019-03-01T11:51:56.959Z,48.51
2019-03-01T11:52:56.973Z,48.51
2019-03-01T11:53:56.949Z,48.51
2019-03-01T11:54:56.919Z,48.51
2019-03-01T11:55:56.909Z,48.51
2019-03-01T11:56:56.909Z,48.41
2019-03-01T11:57:56.891Z,48.41
2019-03-01T11:58:56.903Z,48.41
2019-03-01T11:59:56.869Z,48.41
2019-03-01T12:00:56.854Z,48.51
2019-03-01T12:01:56.847Z,48.51
2019-03-01T12:02:56.848Z,48.51
2019-03-01T12:03:57.047Z,48.51
2019-03-01T12:04:56.813Z,48.51
2019-03-01T12:05:56.804Z,48.51
2019-03-01T12:06:56.791Z,48.51
2019-03-01T12:07:56.785Z,48.41
2019-03-01T12:08:56.771Z,48.41
2019-03-01T12:09:56.784Z,48.41
2019-03-01T12:10:56.748Z,48.41
2019-03-01T12:11:56.748Z,48.41
2019-03-01T12:12:56.727Z,48.41
2019-03-01T12:13:56.710Z,48.41
2019-03-01T12:14:56.729Z,48.51
2019-03-01T12:15:56.699Z,48.51
2019-03-01T12:16:56.687Z,48.61
2019-03-01T12:17:56.672Z,48.71
2019-03-01T12:18:56.660Z,48.71
2019-03-01T12:19:56.655Z,48.71
2019-03-01T12:20:56.856Z,48.81
2019-03-01T12:21:56.630Z,48.81
2019-03-01T12:22:56.619Z,48.91
2019-03-01T12:23:56.610Z,49.01
2019-03-01T12:24:56.600Z,49.01
2019-03-01T12:25:56.593Z,49.01
2019-03-01T12:26:56.604Z,49.01
2019-03-01T12:27:56.567Z,49.01
2019-03-01T12:28:56.552Z,49.01
2019-03-01T12:29:56.543Z,49.01
2019-03-01T12:30:56.532Z,49.01
2019-03-01T12:31:56.517Z,49.01
2019-03-01T12:32:56.553Z,49.01
2019-03-01T12:33:56.518Z,49.01
2019-03-01T12:34:56.489Z,49.01
2019-03-01T12:35:56.473Z,49.01
2019-03-01T12:36:56.463Z,49.01
2019-03-01T12:37:56.454Z,49.01
2019-03-01T12:38:56.686Z,49.01
2019-03-01T12:39:56.465Z,49.01
2019-03-01T12:40:56.422Z,49.01
2019-03-01T12:41:56.416Z,49.01
2019-03-01T12:42:56.403Z,49.01
2019-03-01T12:43:56.396Z,49.01
2019-03-01T12:44:56.378Z,49.01
2019-03-01T12:45:56.387Z,49.01
2019-03-01T12:46:56.359Z,48.91
2019-03-01T12:47:56.355Z,48.91
2019-03-01T12:48:56.360Z,48.91
2019-03-01T12:49:56.328Z,48.91
2019-03-01T12:50:56.335Z,48.91
2019-03-01T12:51:56.304Z,48.91